sensor_id;sensor_type;location;lat;lon;timestamp;temperature;humidity
53498;DHT22;39382;47.168;16.008;2023-03-23T00:00:08;5.50;99.90
53498;DHT22;39382;47.168;16.008;2023-03-23T00:02:36;5.40;99.90
53498;DHT22;39382;47.168;16.008;2023-03-23T00:05:04;5.40;99.90
53498;DHT22;39382;47.168;16.008;2023-03-23T00:07:30;5.40;99.90
53498;DHT22;39382;47.168;16.008;2023-03-23T00:09:56;5.40;99.90
53498;DHT22;39382;47.168;16.008;2023-03-23T00:12:22;5.30;99.90
53498;DHT22;39382;47.168;16.008;2023-03-23T00:14:55;5.30;99.90
53498;DHT22;39382;47.168;16.008;2023-03-23T00:17:21;5.30;99.90
53498;DHT22;39382;47.168;16.008;2023-03-23T00:19:46;5.30;99.90
53498;DHT22;39382;47.168;16.008;2023-03-23T00:22:14;5.40;99.90
53498;DHT22;39382;47.168;16.008;2023-03-23T00:24:41;5.30;99.90
53498;DHT22;39382;47.168;16.008;2023-03-23T00:27:07;5.30;99.90
53498;DHT22;39382;47.168;16.008;2023-03-23T00:29:34;5.30;99.90
53498;DHT22;39382;47.168;16.008;2023-03-23T00:31:59;5.30;99.90
53498;DHT22;39382;47.168;16.008;2023-03-23T00:34:25;5.30;99.90
53498;DHT22;39382;47.168;16.008;2023-03-23T00:36:54;5.30;99.90
53498;DHT22;39382;47.168;16.008;2023-03-23T00:39:24;5.20;99.90
53498;DHT22;39382;47.168;16.008;2023-03-23T00:41:51;5.10;99.90
53498;DHT22;39382;47.168;16.008;2023-03-23T00:44:17;5.10;99.90
53498;DHT22;39382;47.168;16.008;2023-03-23T00:46:47;5.20;99.90
53498;DHT22;39382;47.168;16.008;2023-03-23T00:49:18;5.20;99.90
53498;DHT22;39382;47.168;16.008;2023-03-23T00:51:45;5.10;99.90
53498;DHT22;39382;47.168;16.008;2023-03-23T00:54:11;5.00;99.90
53498;DHT22;39382;47.168;16.008;2023-03-23T00:56:37;4.90;99.90
53498;DHT22;39382;47.168;16.008;2023-03-23T00:59:05;4.80;99.90
53498;DHT22;39382;47.168;16.008;2023-03-23T01:01:31;4.70;99.90
53498;DHT22;39382;47.168;16.008;2023-03-23T01:04:01;4.70;99.90
53498;DHT22;39382;47.168;16.008;2023-03-23T01:06:39;4.70;99.90
53498;DHT22;39382;47.168;16.008;2023-03-23T01:09:13;4.60;99.90
53498;DHT22;39382;47.168;16.008;2023-03-23T01:11:46;4.60;99.90
53498;DHT22;39382;47.168;16.008;2023-03-23T01:14:14;4.60;99.90
53498;DHT22;39382;47.168;16.008;2023-03-23T01:16:41;4.60;99.90
53498;DHT22;39382;47.168;16.008;2023-03-23T01:19:06;4.60;99.90
53498;DHT22;39382;47.168;16.008;2023-03-23T01:21:32;4.60;99.90
53498;DHT22;39382;47.168;16.008;2023-03-23T01:23:57;4.60;99.90
53498;DHT22;39382;47.168;16.008;2023-03-23T01:26:25;4.50;99.90
53498;DHT22;39382;47.168;16.008;2023-03-23T01:28:51;4.50;99.90
53498;DHT22;39382;47.168;16.008;2023-03-23T01:31:21;4.50;99.90
53498;DHT22;39382;47.168;16.008;2023-03-23T01:33:47;4.40;99.90
53498;DHT22;39382;47.168;16.008;2023-03-23T01:36:20;4.40;99.90
53498;DHT22;39382;47.168;16.008;2023-03-23T01:38:47;4.40;99.90
53498;DHT22;39382;47.168;16.008;2023-03-23T01:41:14;4.50;99.90
53498;DHT22;39382;47.168;16.008;2023-03-23T01:44:03;4.50;99.90
53498;DHT22;39382;47.168;16.008;2023-03-23T01:46:31;4.40;99.90
53498;DHT22;39382;47.168;16.008;2023-03-23T01:49:01;4.40;99.90
53498;DHT22;39382;47.168;16.008;2023-03-23T01:51:34;4.30;99.90
53498;DHT22;39382;47.168;16.008;2023-03-23T01:54:05;4.30;99.90
53498;DHT22;39382;47.168;16.008;2023-03-23T01:56:44;4.30;99.90
53498;DHT22;39382;47.168;16.008;2023-03-23T01:59:11;4.30;99.90
53498;DHT22;39382;47.168;16.008;2023-03-23T02:01:39;4.20;99.90
53498;DHT22;39382;47.168;16.008;2023-03-23T02:04:13;4.30;99.90
53498;DHT22;39382;47.168;16.008;2023-03-23T02:06:40;4.20;99.90
53498;DHT22;39382;47.168;16.008;2023-03-23T02:09:06;4.10;99.90
53498;DHT22;39382;47.168;16.008;2023-03-23T02:11:32;4.10;99.90
53498;DHT22;39382;47.168;16.008;2023-03-23T02:13:58;4.00;99.90
53498;DHT22;39382;47.168;16.008;2023-03-23T02:16:32;4.00;99.90
53498;DHT22;39382;47.168;16.008;2023-03-23T02:24:35;4.00;99.90
53498;DHT22;39382;47.168;16.008;2023-03-23T02:27:10;4.10;99.90
53498;DHT22;39382;47.168;16.008;2023-03-23T02:29:52;4.10;99.90
53498;DHT22;39382;47.168;16.008;2023-03-23T02:35:08;4.10;99.90
53498;DHT22;39382;47.168;16.008;2023-03-23T02:37:44;4.00;99.90
53498;DHT22;39382;47.168;16.008;2023-03-23T02:40:15;4.00;99.90
53498;DHT22;39382;47.168;16.008;2023-03-23T02:42:45;4.10;99.90
53498;DHT22;39382;47.168;16.008;2023-03-23T02:45:14;4.00;99.90
53498;DHT22;39382;47.168;16.008;2023-03-23T02:47:41;4.00;99.90
53498;DHT22;39382;47.168;16.008;2023-03-23T02:50:11;3.90;99.90
53498;DHT22;39382;47.168;16.008;2023-03-23T02:52:40;3.80;99.90
53498;DHT22;39382;47.168;16.008;2023-03-23T02:55:07;3.70;99.90
53498;DHT22;39382;47.168;16.008;2023-03-23T02:57:33;3.80;99.90
53498;DHT22;39382;47.168;16.008;2023-03-23T03:00:00;3.80;99.90
53498;DHT22;39382;47.168;16.008;2023-03-23T03:02:36;3.70;99.90
53498;DHT22;39382;47.168;16.008;2023-03-23T03:08:11;3.60;99.90
53498;DHT22;39382;47.168;16.008;2023-03-23T03:10:57;3.70;99.90
53498;DHT22;39382;47.168;16.008;2023-03-23T03:16:44;3.60;99.90
53498;DHT22;39382;47.168;16.008;2023-03-23T03:19:32;3.60;99.90
53498;DHT22;39382;47.168;16.008;2023-03-23T03:21:59;3.60;99.90
53498;DHT22;39382;47.168;16.008;2023-03-23T03:24:28;3.60;99.90
53498;DHT22;39382;47.168;16.008;2023-03-23T03:26:56;3.60;99.90
53498;DHT22;39382;47.168;16.008;2023-03-23T03:29:26;3.60;99.90
53498;DHT22;39382;47.168;16.008;2023-03-23T03:31:55;3.60;99.90
53498;DHT22;39382;47.168;16.008;2023-03-23T03:34:22;3.50;99.90
53498;DHT22;39382;47.168;16.008;2023-03-23T03:36:51;3.50;99.90
53498;DHT22;39382;47.168;16.008;2023-03-23T03:39:19;3.40;99.90
53498;DHT22;39382;47.168;16.008;2023-03-23T03:41:46;3.50;99.90
53498;DHT22;39382;47.168;16.008;2023-03-23T03:44:12;3.40;99.90
53498;DHT22;39382;47.168;16.008;2023-03-23T03:46:38;3.40;99.90
53498;DHT22;39382;47.168;16.008;2023-03-23T03:49:06;3.40;99.90
53498;DHT22;39382;47.168;16.008;2023-03-23T03:51:33;3.40;99.90
53498;DHT22;39382;47.168;16.008;2023-03-23T03:53:59;3.40;99.90
53498;DHT22;39382;47.168;16.008;2023-03-23T03:56:25;3.40;99.90
53498;DHT22;39382;47.168;16.008;2023-03-23T03:58:52;3.40;99.90
53498;DHT22;39382;47.168;16.008;2023-03-23T04:01:19;3.40;99.90
53498;DHT22;39382;47.168;16.008;2023-03-23T04:03:46;3.40;99.90
53498;DHT22;39382;47.168;16.008;2023-03-23T04:06:12;3.30;99.90
53498;DHT22;39382;47.168;16.008;2023-03-23T04:08:39;3.20;99.90
53498;DHT22;39382;47.168;16.008;2023-03-23T04:11:07;3.30;99.90
53498;DHT22;39382;47.168;16.008;2023-03-23T04:13:33;3.40;99.90
53498;DHT22;39382;47.168;16.008;2023-03-23T04:15:59;3.40;99.90
53498;DHT22;39382;47.168;16.008;2023-03-23T04:18:26;3.40;99.90
53498;DHT22;39382;47.168;16.008;2023-03-23T04:20:51;3.30;99.90
53498;DHT22;39382;47.168;16.008;2023-03-23T04:23:18;3.30;99.90
53498;DHT22;39382;47.168;16.008;2023-03-23T04:25:49;3.30;99.90
53498;DHT22;39382;47.168;16.008;2023-03-23T04:28:17;3.50;99.90
53498;DHT22;39382;47.168;16.008;2023-03-23T04:30:44;3.40;99.90
53498;DHT22;39382;47.168;16.008;2023-03-23T04:33:11;3.40;99.90
53498;DHT22;39382;47.168;16.008;2023-03-23T04:35:41;3.30;99.90
53498;DHT22;39382;47.168;16.008;2023-03-23T04:38:08;3.30;99.90
53498;DHT22;39382;47.168;16.008;2023-03-23T04:40:38;3.30;99.90
53498;DHT22;39382;47.168;16.008;2023-03-23T04:43:05;3.30;99.90
53498;DHT22;39382;47.168;16.008;2023-03-23T04:45:32;3.30;99.90
53498;DHT22;39382;47.168;16.008;2023-03-23T04:47:58;3.30;99.90
53498;DHT22;39382;47.168;16.008;2023-03-23T04:50:28;3.30;99.90
53498;DHT22;39382;47.168;16.008;2023-03-23T04:52:56;3.30;99.90
53498;DHT22;39382;47.168;16.008;2023-03-23T04:55:23;3.40;99.90
53498;DHT22;39382;47.168;16.008;2023-03-23T04:57:49;3.40;99.90
53498;DHT22;39382;47.168;16.008;2023-03-23T05:00:16;3.40;99.90
53498;DHT22;39382;47.168;16.008;2023-03-23T05:02:46;3.30;99.90
53498;DHT22;39382;47.168;16.008;2023-03-23T05:05:13;3.20;99.90
53498;DHT22;39382;47.168;16.008;2023-03-23T05:07:41;3.30;99.90
53498;DHT22;39382;47.168;16.008;2023-03-23T05:10:09;3.40;99.90
53498;DHT22;39382;47.168;16.008;2023-03-23T05:12:36;3.40;99.90
53498;DHT22;39382;47.168;16.008;2023-03-23T05:15:02;3.40;99.90
53498;DHT22;39382;47.168;16.008;2023-03-23T05:17:28;3.40;99.90
53498;DHT22;39382;47.168;16.008;2023-03-23T05:19:55;3.50;99.90
53498;DHT22;39382;47.168;16.008;2023-03-23T05:22:22;3.60;99.90
53498;DHT22;39382;47.168;16.008;2023-03-23T05:24:49;3.70;99.90
53498;DHT22;39382;47.168;16.008;2023-03-23T05:27:17;3.70;99.90
53498;DHT22;39382;47.168;16.008;2023-03-23T05:29:47;3.70;99.90
53498;DHT22;39382;47.168;16.008;2023-03-23T05:32:16;3.80;99.90
53498;DHT22;39382;47.168;16.008;2023-03-23T05:34:43;3.80;99.90
53498;DHT22;39382;47.168;16.008;2023-03-23T05:37:09;3.90;99.90
53498;DHT22;39382;47.168;16.008;2023-03-23T05:39:35;4.00;99.90
53498;DHT22;39382;47.168;16.008;2023-03-23T05:42:02;4.80;99.90
53498;DHT22;39382;47.168;16.008;2023-03-23T05:44:28;4.70;99.90
53498;DHT22;39382;47.168;16.008;2023-03-23T05:46:55;4.60;99.90
53498;DHT22;39382;47.168;16.008;2023-03-23T05:49:21;4.60;99.90
53498;DHT22;39382;47.168;16.008;2023-03-23T05:51:47;4.60;99.90
53498;DHT22;39382;47.168;16.008;2023-03-23T05:54:13;4.50;99.90
53498;DHT22;39382;47.168;16.008;2023-03-23T05:56:40;4.60;99.90
53498;DHT22;39382;47.168;16.008;2023-03-23T05:59:06;4.70;99.90
53498;DHT22;39382;47.168;16.008;2023-03-23T06:01:32;4.80;99.90
53498;DHT22;39382;47.168;16.008;2023-03-23T06:03:58;4.80;99.90
53498;DHT22;39382;47.168;16.008;2023-03-23T06:06:28;4.90;99.90
53498;DHT22;39382;47.168;16.008;2023-03-23T06:08:55;5.00;99.90
53498;DHT22;39382;47.168;16.008;2023-03-23T06:11:22;5.10;99.90
53498;DHT22;39382;47.168;16.008;2023-03-23T06:13:48;5.20;99.90
53498;DHT22;39382;47.168;16.008;2023-03-23T06:16:14;5.40;99.90
53498;DHT22;39382;47.168;16.008;2023-03-23T06:18:41;5.40;99.90
53498;DHT22;39382;47.168;16.008;2023-03-23T06:21:08;5.60;99.90
53498;DHT22;39382;47.168;16.008;2023-03-23T06:23:34;5.70;99.90
53498;DHT22;39382;47.168;16.008;2023-03-23T06:26:04;5.90;99.90
53498;DHT22;39382;47.168;16.008;2023-03-23T06:28:31;6.00;99.90
53498;DHT22;39382;47.168;16.008;2023-03-23T06:31:01;6.10;99.90
53498;DHT22;39382;47.168;16.008;2023-03-23T06:33:27;6.20;99.90
53498;DHT22;39382;47.168;16.008;2023-03-23T06:35:53;6.30;99.90
53498;DHT22;39382;47.168;16.008;2023-03-23T06:38:19;6.40;99.90
53498;DHT22;39382;47.168;16.008;2023-03-23T06:40:44;6.50;99.90
53498;DHT22;39382;47.168;16.008;2023-03-23T06:43:12;6.70;99.90
53498;DHT22;39382;47.168;16.008;2023-03-23T06:45:39;6.80;99.90
53498;DHT22;39382;47.168;16.008;2023-03-23T06:48:05;6.80;99.90
53498;DHT22;39382;47.168;16.008;2023-03-23T06:50:31;7.00;99.90
53498;DHT22;39382;47.168;16.008;2023-03-23T06:52:56;7.10;99.90
53498;DHT22;39382;47.168;16.008;2023-03-23T06:55:22;7.20;99.90
53498;DHT22;39382;47.168;16.008;2023-03-23T06:57:48;7.30;99.90
53498;DHT22;39382;47.168;16.008;2023-03-23T07:00:14;7.50;99.90
53498;DHT22;39382;47.168;16.008;2023-03-23T07:02:40;7.60;99.90
53498;DHT22;39382;47.168;16.008;2023-03-23T07:05:07;7.60;99.90
53498;DHT22;39382;47.168;16.008;2023-03-23T07:07:35;7.80;99.90
53498;DHT22;39382;47.168;16.008;2023-03-23T07:10:01;7.90;99.90
53498;DHT22;39382;47.168;16.008;2023-03-23T07:12:27;8.00;99.90
53498;DHT22;39382;47.168;16.008;2023-03-23T07:14:54;8.20;99.90
53498;DHT22;39382;47.168;16.008;2023-03-23T07:17:19;8.30;99.90
53498;DHT22;39382;47.168;16.008;2023-03-23T07:19:45;9.50;99.90
53498;DHT22;39382;47.168;16.008;2023-03-23T07:22:11;9.30;99.90
53498;DHT22;39382;47.168;16.008;2023-03-23T07:24:37;9.40;99.90
53498;DHT22;39382;47.168;16.008;2023-03-23T07:27:03;9.50;99.90
53498;DHT22;39382;47.168;16.008;2023-03-23T07:29:29;9.40;99.90
53498;DHT22;39382;47.168;16.008;2023-03-23T07:31:55;9.50;99.90
53498;DHT22;39382;47.168;16.008;2023-03-23T07:34:21;9.60;99.90
53498;DHT22;39382;47.168;16.008;2023-03-23T07:36:47;9.70;99.90
53498;DHT22;39382;47.168;16.008;2023-03-23T07:39:14;11.20;99.90
53498;DHT22;39382;47.168;16.008;2023-03-23T07:41:39;12.00;99.90
53498;DHT22;39382;47.168;16.008;2023-03-23T07:44:05;12.30;98.40
53498;DHT22;39382;47.168;16.008;2023-03-23T07:46:32;12.50;98.00
53498;DHT22;39382;47.168;16.008;2023-03-23T07:48:58;12.80;97.90
53498;DHT22;39382;47.168;16.008;2023-03-23T07:51:25;13.10;96.50
53498;DHT22;39382;47.168;16.008;2023-03-23T07:53:51;12.60;96.70
53498;DHT22;39382;47.168;16.008;2023-03-23T07:56:17;12.30;97.50
53498;DHT22;39382;47.168;16.008;2023-03-23T07:58:45;12.20;98.80
53498;DHT22;39382;47.168;16.008;2023-03-23T08:01:11;12.20;99.90
53498;DHT22;39382;47.168;16.008;2023-03-23T08:03:38;12.20;99.70
53498;DHT22;39382;47.168;16.008;2023-03-23T08:06:04;12.20;99.20
53498;DHT22;39382;47.168;16.008;2023-03-23T08:08:30;12.30;98.90
53498;DHT22;39382;47.168;16.008;2023-03-23T08:10:57;12.40;98.80
53498;DHT22;39382;47.168;16.008;2023-03-23T08:13:23;12.60;99.50
53498;DHT22;39382;47.168;16.008;2023-03-23T08:15:50;12.70;98.50
53498;DHT22;39382;47.168;16.008;2023-03-23T08:18:16;12.70;98.60
53498;DHT22;39382;47.168;16.008;2023-03-23T08:20:43;12.80;98.50
53498;DHT22;39382;47.168;16.008;2023-03-23T08:23:10;12.90;98.10
53498;DHT22;39382;47.168;16.008;2023-03-23T08:25:36;13.10;98.90
53498;DHT22;39382;47.168;16.008;2023-03-23T08:28:03;13.20;98.30
53498;DHT22;39382;47.168;16.008;2023-03-23T08:30:30;13.30;97.70
53498;DHT22;39382;47.168;16.008;2023-03-23T08:32:57;13.40;97.10
53498;DHT22;39382;47.168;16.008;2023-03-23T08:35:24;13.60;96.90
53498;DHT22;39382;47.168;16.008;2023-03-23T08:37:50;13.70;96.10
53498;DHT22;39382;47.168;16.008;2023-03-23T08:40:17;13.70;95.80
53498;DHT22;39382;47.168;16.008;2023-03-23T08:42:45;13.80;96.10
53498;DHT22;39382;47.168;16.008;2023-03-23T08:45:14;13.80;95.20
53498;DHT22;39382;47.168;16.008;2023-03-23T08:47:41;13.80;95.40
53498;DHT22;39382;47.168;16.008;2023-03-23T08:50:10;13.90;95.30
53498;DHT22;39382;47.168;16.008;2023-03-23T08:52:36;14.10;95.10
53498;DHT22;39382;47.168;16.008;2023-03-23T08:55:03;14.30;95.50
53498;DHT22;39382;47.168;16.008;2023-03-23T08:57:28;14.40;94.90
53498;DHT22;39382;47.168;16.008;2023-03-23T08:59:55;14.60;95.10
53498;DHT22;39382;47.168;16.008;2023-03-23T09:02:25;14.70;95.00
53498;DHT22;39382;47.168;16.008;2023-03-23T09:04:53;14.80;95.10
53498;DHT22;39382;47.168;16.008;2023-03-23T09:07:19;14.80;94.00
53498;DHT22;39382;47.168;16.008;2023-03-23T09:09:45;14.90;94.50
53498;DHT22;39382;47.168;16.008;2023-03-23T09:12:11;15.10;94.10
53498;DHT22;39382;47.168;16.008;2023-03-23T09:14:38;15.10;93.80
53498;DHT22;39382;47.168;16.008;2023-03-23T09:17:05;15.10;93.30
53498;DHT22;39382;47.168;16.008;2023-03-23T09:19:32;15.20;93.20
53498;DHT22;39382;47.168;16.008;2023-03-23T09:21:59;15.30;93.80
53498;DHT22;39382;47.168;16.008;2023-03-23T09:24:25;15.40;93.40
53498;DHT22;39382;47.168;16.008;2023-03-23T09:26:51;15.60;93.00
53498;DHT22;39382;47.168;16.008;2023-03-23T09:29:18;15.80;93.90
53498;DHT22;39382;47.168;16.008;2023-03-23T09:31:44;15.90;92.80
53498;DHT22;39382;47.168;16.008;2023-03-23T09:34:12;15.80;92.50
53498;DHT22;39382;47.168;16.008;2023-03-23T09:36:38;15.90;92.60
53498;DHT22;39382;47.168;16.008;2023-03-23T09:39:05;16.10;92.40
53498;DHT22;39382;47.168;16.008;2023-03-23T09:44:28;16.40;91.70
53498;DHT22;39382;47.168;16.008;2023-03-23T09:47:05;16.50;90.90
53498;DHT22;39382;47.168;16.008;2023-03-23T09:49:45;16.80;90.90
53498;DHT22;39382;47.168;16.008;2023-03-23T09:52:16;16.80;89.80
53498;DHT22;39382;47.168;16.008;2023-03-23T09:54:51;16.70;89.40
53498;DHT22;39382;47.168;16.008;2023-03-23T09:57:45;16.60;88.90
53498;DHT22;39382;47.168;16.008;2023-03-23T10:00:19;16.50;88.50
53498;DHT22;39382;47.168;16.008;2023-03-23T10:03:05;16.40;88.10
53498;DHT22;39382;47.168;16.008;2023-03-23T10:05:39;16.50;88.80
53498;DHT22;39382;47.168;16.008;2023-03-23T10:08:11;16.60;88.10
53498;DHT22;39382;47.168;16.008;2023-03-23T10:13:56;16.70;87.30
53498;DHT22;39382;47.168;16.008;2023-03-23T10:16:29;16.80;86.70
53498;DHT22;39382;47.168;16.008;2023-03-23T10:19:11;16.80;83.70
53498;DHT22;39382;47.168;16.008;2023-03-23T10:21:44;16.70;84.20
53498;DHT22;39382;47.168;16.008;2023-03-23T10:24:15;16.70;85.30
53498;DHT22;39382;47.168;16.008;2023-03-23T10:29:57;16.70;85.20
53498;DHT22;39382;47.168;16.008;2023-03-23T10:32:52;16.90;86.30
53498;DHT22;39382;47.168;16.008;2023-03-23T10:35:28;17.10;84.70
53498;DHT22;39382;47.168;16.008;2023-03-23T10:38:05;17.40;84.40
53498;DHT22;39382;47.168;16.008;2023-03-23T10:40:43;17.50;81.40
53498;DHT22;39382;47.168;16.008;2023-03-23T10:43:10;17.60;82.90
53498;DHT22;39382;47.168;16.008;2023-03-23T10:45:35;17.60;81.30
53498;DHT22;39382;47.168;16.008;2023-03-23T10:48:09;17.50;80.70
53498;DHT22;39382;47.168;16.008;2023-03-23T10:50:37;17.50;80.40
53498;DHT22;39382;47.168;16.008;2023-03-23T10:53:22;17.40;80.80
53498;DHT22;39382;47.168;16.008;2023-03-23T10:55:49;17.30;82.10
53498;DHT22;39382;47.168;16.008;2023-03-23T10:58:30;17.20;80.90
53498;DHT22;39382;47.168;16.008;2023-03-23T11:00:58;17.20;81.10
53498;DHT22;39382;47.168;16.008;2023-03-23T11:03:33;17.20;80.90
53498;DHT22;39382;47.168;16.008;2023-03-23T11:06:03;17.10;82.20
53498;DHT22;39382;47.168;16.008;2023-03-23T11:08:34;17.20;81.40
53498;DHT22;39382;47.168;16.008;2023-03-23T11:11:28;17.20;80.50
53498;DHT22;39382;47.168;16.008;2023-03-23T11:13:59;17.30;81.10
53498;DHT22;39382;47.168;16.008;2023-03-23T11:16:33;17.40;79.00
53498;DHT22;39382;47.168;16.008;2023-03-23T11:19:00;17.50;79.60
53498;DHT22;39382;47.168;16.008;2023-03-23T11:21:37;17.80;80.90
53498;DHT22;39382;47.168;16.008;2023-03-23T11:24:05;18.00;79.20
53498;DHT22;39382;47.168;16.008;2023-03-23T11:26:33;18.10;78.70
53498;DHT22;39382;47.168;16.008;2023-03-23T11:31:34;18.20;77.80
53498;DHT22;39382;47.168;16.008;2023-03-23T11:34:20;18.50;78.50
53498;DHT22;39382;47.168;16.008;2023-03-23T11:36:53;18.70;77.30
53498;DHT22;39382;47.168;16.008;2023-03-23T11:39:24;18.80;76.80
53498;DHT22;39382;47.168;16.008;2023-03-23T11:41:50;18.80;75.60
53498;DHT22;39382;47.168;16.008;2023-03-23T11:44:17;18.70;75.30
53498;DHT22;39382;47.168;16.008;2023-03-23T11:47:04;18.70;73.80
53498;DHT22;39382;47.168;16.008;2023-03-23T11:49:50;18.80;75.10
53498;DHT22;39382;47.168;16.008;2023-03-23T11:58:16;19.00;74.30
53498;DHT22;39382;47.168;16.008;2023-03-23T12:06:10;19.00;73.40
53498;DHT22;39382;47.168;16.008;2023-03-23T12:19:37;19.00;71.10
53498;DHT22;39382;47.168;16.008;2023-03-23T12:28:20;19.10;70.10
53498;DHT22;39382;47.168;16.008;2023-03-23T12:31:18;19.20;70.30
53498;DHT22;39382;47.168;16.008;2023-03-23T12:37:54;19.40;70.80
53498;DHT22;39382;47.168;16.008;2023-03-23T12:40:16;19.70;70.00
53498;DHT22;39382;47.168;16.008;2023-03-23T12:48:34;19.80;69.10
53498;DHT22;39382;47.168;16.008;2023-03-23T12:51:25;19.80;68.00
53498;DHT22;39382;47.168;16.008;2023-03-23T12:56:41;20.10;68.40
53498;DHT22;39382;47.168;16.008;2023-03-23T12:59:55;20.20;67.20
53498;DHT22;39382;47.168;16.008;2023-03-23T13:04:46;20.10;67.70
53498;DHT22;39382;47.168;16.008;2023-03-23T13:07:17;20.10;68.00
53498;DHT22;39382;47.168;16.008;2023-03-23T13:10:11;20.00;67.70
53498;DHT22;39382;47.168;16.008;2023-03-23T13:12:38;19.90;67.80
53498;DHT22;39382;47.168;16.008;2023-03-23T13:23:14;19.90;67.50
53498;DHT22;39382;47.168;16.008;2023-03-23T13:26:14;19.80;67.10
53498;DHT22;39382;47.168;16.008;2023-03-23T13:31:34;19.90;67.70
53498;DHT22;39382;47.168;16.008;2023-03-23T13:34:06;20.10;66.70
53498;DHT22;39382;47.168;16.008;2023-03-23T13:36:38;20.10;65.80
53498;DHT22;39382;47.168;16.008;2023-03-23T13:39:25;20.20;65.10
53498;DHT22;39382;47.168;16.008;2023-03-23T13:50:00;20.30;66.20
53498;DHT22;39382;47.168;16.008;2023-03-23T14:03:03;20.20;64.00
53498;DHT22;39382;47.168;16.008;2023-03-23T14:05:34;20.10;65.00
53498;DHT22;39382;47.168;16.008;2023-03-23T14:14:20;20.20;65.00
53498;DHT22;39382;47.168;16.008;2023-03-23T14:16:40;20.10;64.40
53498;DHT22;39382;47.168;16.008;2023-03-23T14:19:23;20.10;65.50
53498;DHT22;39382;47.168;16.008;2023-03-23T14:21:54;20.10;65.90
53498;DHT22;39382;47.168;16.008;2023-03-23T14:27:13;19.90;65.30
53498;DHT22;39382;47.168;16.008;2023-03-23T14:29:40;20.00;65.30
53498;DHT22;39382;47.168;16.008;2023-03-23T14:32:07;20.00;65.10
53498;DHT22;39382;47.168;16.008;2023-03-23T14:34:35;19.90;65.10
53498;DHT22;39382;47.168;16.008;2023-03-23T14:37:02;19.90;65.30
53498;DHT22;39382;47.168;16.008;2023-03-23T14:39:32;20.00;65.40
53498;DHT22;39382;47.168;16.008;2023-03-23T14:42:10;19.90;64.60
53498;DHT22;39382;47.168;16.008;2023-03-23T14:44:45;19.90;64.00
53498;DHT22;39382;47.168;16.008;2023-03-23T14:47:30;19.90;65.30
53498;DHT22;39382;47.168;16.008;2023-03-23T14:49:59;19.80;65.50
53498;DHT22;39382;47.168;16.008;2023-03-23T14:52:27;19.80;66.30
53498;DHT22;39382;47.168;16.008;2023-03-23T14:54:54;19.80;66.00
53498;DHT22;39382;47.168;16.008;2023-03-23T14:57:27;19.80;66.00
53498;DHT22;39382;47.168;16.008;2023-03-23T14:59:54;19.80;65.50
53498;DHT22;39382;47.168;16.008;2023-03-23T15:02:30;19.80;65.80
53498;DHT22;39382;47.168;16.008;2023-03-23T15:05:08;19.70;65.60
53498;DHT22;39382;47.168;16.008;2023-03-23T15:07:38;19.70;65.90
53498;DHT22;39382;47.168;16.008;2023-03-23T15:10:08;19.60;66.20
53498;DHT22;39382;47.168;16.008;2023-03-23T15:12:36;19.60;66.70
53498;DHT22;39382;47.168;16.008;2023-03-23T15:15:05;19.60;67.00
53498;DHT22;39382;47.168;16.008;2023-03-23T15:17:37;19.60;67.10
53498;DHT22;39382;47.168;16.008;2023-03-23T15:20:30;19.60;66.90
53498;DHT22;39382;47.168;16.008;2023-03-23T15:23:04;19.60;66.20
53498;DHT22;39382;47.168;16.008;2023-03-23T15:25:32;19.40;66.50
53498;DHT22;39382;47.168;16.008;2023-03-23T15:28:17;19.40;66.80
53498;DHT22;39382;47.168;16.008;2023-03-23T15:30:50;19.40;66.90
53498;DHT22;39382;47.168;16.008;2023-03-23T15:33:16;19.40;66.30
53498;DHT22;39382;47.168;16.008;2023-03-23T15:35:47;19.30;66.10
53498;DHT22;39382;47.168;16.008;2023-03-23T15:40:55;19.20;66.60
53498;DHT22;39382;47.168;16.008;2023-03-23T15:43:31;19.20;67.40
53498;DHT22;39382;47.168;16.008;2023-03-23T15:46:19;19.30;66.50
53498;DHT22;39382;47.168;16.008;2023-03-23T15:51:21;19.30;66.80
53498;DHT22;39382;47.168;16.008;2023-03-23T15:53:50;19.20;65.90
53498;DHT22;39382;47.168;16.008;2023-03-23T15:56:16;19.10;66.00
53498;DHT22;39382;47.168;16.008;2023-03-23T15:58:42;19.20;66.30
53498;DHT22;39382;47.168;16.008;2023-03-23T16:01:12;19.10;65.50
53498;DHT22;39382;47.168;16.008;2023-03-23T16:03:42;19.10;66.40
53498;DHT22;39382;47.168;16.008;2023-03-23T16:06:13;19.00;66.30
53498;DHT22;39382;47.168;16.008;2023-03-23T16:08:40;18.90;66.90
53498;DHT22;39382;47.168;16.008;2023-03-23T16:11:14;18.90;66.30
53498;DHT22;39382;47.168;16.008;2023-03-23T16:13:40;18.80;65.70
53498;DHT22;39382;47.168;16.008;2023-03-23T16:16:15;18.70;66.90
53498;DHT22;39382;47.168;16.008;2023-03-23T16:18:40;18.50;69.40
53498;DHT22;39382;47.168;16.008;2023-03-23T16:21:06;18.40;70.90
53498;DHT22;39382;47.168;16.008;2023-03-23T16:23:32;18.20;72.70
53498;DHT22;39382;47.168;16.008;2023-03-23T16:25:58;18.00;74.80
53498;DHT22;39382;47.168;16.008;2023-03-23T16:28:23;17.80;75.60
53498;DHT22;39382;47.168;16.008;2023-03-23T16:30:49;17.60;76.30
53498;DHT22;39382;47.168;16.008;2023-03-23T16:33:15;17.50;77.00
53498;DHT22;39382;47.168;16.008;2023-03-23T16:35:41;17.30;78.10
53498;DHT22;39382;47.168;16.008;2023-03-23T16:38:14;17.10;79.60
53498;DHT22;39382;47.168;16.008;2023-03-23T16:40:42;17.00;80.90
53498;DHT22;39382;47.168;16.008;2023-03-23T16:43:08;16.80;81.60
53498;DHT22;39382;47.168;16.008;2023-03-23T16:45:35;16.60;82.60
53498;DHT22;39382;47.168;16.008;2023-03-23T16:48:01;16.50;83.50
53498;DHT22;39382;47.168;16.008;2023-03-23T16:50:28;16.40;84.20
53498;DHT22;39382;47.168;16.008;2023-03-23T16:52:54;16.10;85.90
53498;DHT22;39382;47.168;16.008;2023-03-23T16:55:20;15.90;86.40
53498;DHT22;39382;47.168;16.008;2023-03-23T16:57:47;15.80;87.40
53498;DHT22;39382;47.168;16.008;2023-03-23T17:00:14;15.60;87.90
53498;DHT22;39382;47.168;16.008;2023-03-23T17:02:45;15.40;88.90
53498;DHT22;39382;47.168;16.008;2023-03-23T17:05:11;15.20;90.10
53498;DHT22;39382;47.168;16.008;2023-03-23T17:07:39;15.00;90.90
53498;DHT22;39382;47.168;16.008;2023-03-23T17:10:08;14.80;91.40
53498;DHT22;39382;47.168;16.008;2023-03-23T17:12:34;14.70;91.90
53498;DHT22;39382;47.168;16.008;2023-03-23T17:15:01;14.50;92.40
53498;DHT22;39382;47.168;16.008;2023-03-23T17:17:27;14.40;93.00
53498;DHT22;39382;47.168;16.008;2023-03-23T17:19:53;14.20;93.40
53498;DHT22;39382;47.168;16.008;2023-03-23T17:22:19;14.00;93.70
53498;DHT22;39382;47.168;16.008;2023-03-23T17:24:45;13.80;94.40
53498;DHT22;39382;47.168;16.008;2023-03-23T17:27:13;13.70;95.10
53498;DHT22;39382;47.168;16.008;2023-03-23T17:29:39;13.70;95.40